sensor_id;sensor_type;location;lat;lon;timestamp;pressure;altitude;pressure_sealevel;temperature;humidity
68889;BME280;55930;47.412;8.790;2024-02-21T00:02:56;96381.34;;;1.26;100.00
68889;BME280;55930;47.412;8.790;2024-02-21T00:06:19;96380.16;;;1.20;100.00
68889;BME280;55930;47.412;8.790;2024-02-21T00:09:39;96377.22;;;1.25;100.00
68889;BME280;55930;47.412;8.790;2024-02-21T00:13:00;96376.13;;;1.26;100.00
68889;BME280;55930;47.412;8.790;2024-02-21T00:16:20;96371.91;;;1.18;100.00
68889;BME280;55930;47.412;8.790;2024-02-21T00:19:40;96357.72;;;1.19;100.00
68889;BME280;55930;47.412;8.790;2024-02-21T00:23:01;96367.69;;;1.09;100.00
68889;BME280;55930;47.412;8.790;2024-02-21T00:26:21;96360.97;;;1.12;100.00
68889;BME280;55930;47.412;8.790;2024-02-21T00:29:42;96362.81;;;1.08;100.00
68889;BME280;55930;47.412;8.790;2024-02-21T00:33:02;96365.75;;;1.06;100.00
68889;BME280;55930;47.412;8.790;2024-02-21T00:36:23;96349.28;;;1.02;100.00
68889;BME280;55930;47.412;8.790;2024-02-21T00:39:43;96344.75;;;0.99;100.00
68889;BME280;55930;47.412;8.790;2024-02-21T00:43:03;96347.13;;;1.08;100.00
68889;BME280;55930;47.412;8.790;2024-02-21T00:46:24;96347.72;;;0.98;100.00
68889;BME280;55930;47.412;8.790;2024-02-21T00:49:44;96339.88;;;0.98;100.00
68889;BME280;55930;47.412;8.790;2024-02-21T00:53:05;96342.06;;;0.92;100.00
68889;BME280;55930;47.412;8.790;2024-02-21T00:56:25;96337.06;;;0.84;100.00
68889;BME280;55930;47.412;8.790;2024-02-21T00:59:49;96339.00;;;0.87;100.00
68889;BME280;55930;47.412;8.790;2024-02-21T01:03:10;96318.09;;;0.87;100.00
68889;BME280;55930;47.412;8.790;2024-02-21T01:06:30;96315.09;;;0.88;100.00
68889;BME280;55930;47.412;8.790;2024-02-21T01:09:50;96307.91;;;0.78;100.00
68889;BME280;55930;47.412;8.790;2024-02-21T01:13:13;96303.72;;;0.73;100.00
68889;BME280;55930;47.412;8.790;2024-02-21T01:16:34;96315.41;;;0.83;100.00
68889;BME280;55930;47.412;8.790;2024-02-21T01:19:54;96315.59;;;0.94;100.00
68889;BME280;55930;47.412;8.790;2024-02-21T01:23:15;96317.19;;;1.02;100.00
68889;BME280;55930;47.412;8.790;2024-02-21T01:26:35;96314.72;;;0.86;100.00
68889;BME280;55930;47.412;8.790;2024-02-21T01:29:56;96303.78;;;0.77;100.00
68889;BME280;55930;47.412;8.790;2024-02-21T01:33:16;96310.16;;;0.80;100.00
68889;BME280;55930;47.412;8.790;2024-02-21T01:36:36;96314.66;;;0.83;100.00
68889;BME280;55930;47.412;8.790;2024-02-21T01:39:57;96309.41;;;0.79;100.00
68889;BME280;55930;47.412;8.790;2024-02-21T01:43:21;96317.03;;;0.91;100.00
68889;BME280;55930;47.412;8.790;2024-02-21T01:46:42;96310.78;;;0.99;100.00
68889;BME280;55930;47.412;8.790;2024-02-21T01:50:05;96303.28;;;0.94;100.00
68889;BME280;55930;47.412;8.790;2024-02-21T01:53:29;96306.78;;;0.79;100.00
68889;BME280;55930;47.412;8.790;2024-02-21T01:56:50;96304.31;;;0.63;100.00
68889;BME280;55930;47.412;8.790;2024-02-21T02:00:13;96289.88;;;0.69;100.00
68889;BME280;55930;47.412;8.790;2024-02-21T02:03:34;96286.53;;;0.72;100.00
68889;BME280;55930;47.412;8.790;2024-02-21T02:06:54;96282.44;;;0.71;100.00
68889;BME280;55930;47.412;8.790;2024-02-21T02:10:15;96268.31;;;0.76;100.00
68889;BME280;55930;47.412;8.790;2024-02-21T02:13:36;96275.22;;;0.91;100.00
68889;BME280;55930;47.412;8.790;2024-02-21T02:16:58;96262.34;;;1.05;100.00
68889;BME280;55930;47.412;8.790;2024-02-21T02:20:19;96263.38;;;0.97;100.00
68889;BME280;55930;47.412;8.790;2024-02-21T02:23:39;96255.59;;;1.04;100.00
68889;BME280;55930;47.412;8.790;2024-02-21T02:27:00;96250.59;;;1.22;100.00
68889;BME280;55930;47.412;8.790;2024-02-21T02:30:20;96266.25;;;1.19;100.00
68889;BME280;55930;47.412;8.790;2024-02-21T02:33:44;96256.66;;;1.26;100.00
68889;BME280;55930;47.412;8.790;2024-02-21T02:37:04;96249.56;;;1.30;100.00
68889;BME280;55930;47.412;8.790;2024-02-21T02:40:25;96242.09;;;1.29;100.00
68889;BME280;55930;47.412;8.790;2024-02-21T02:43:45;96231.00;;;1.39;100.00
68889;BME280;55930;47.412;8.790;2024-02-21T02:47:08;96223.88;;;1.36;100.00
68889;BME280;55930;47.412;8.790;2024-02-21T02:50:29;96221.56;;;1.31;100.00
68889;BME280;55930;47.412;8.790;2024-02-21T02:53:50;96234.69;;;1.34;100.00
68889;BME280;55930;47.412;8.790;2024-02-21T02:57:10;96226.19;;;1.41;100.00
68889;BME280;55930;47.412;8.790;2024-02-21T03:00:30;96217.59;;;1.44;100.00
68889;BME280;55930;47.412;8.790;2024-02-21T03:03:51;96220.22;;;1.44;100.00
68889;BME280;55930;47.412;8.790;2024-02-21T03:07:14;96212.78;;;1.46;100.00
68889;BME280;55930;47.412;8.790;2024-02-21T03:10:35;96200.53;;;1.53;100.00
68889;BME280;55930;47.412;8.790;2024-02-21T03:13:55;96195.00;;;1.59;100.00
68889;BME280;55930;47.412;8.790;2024-02-21T03:17:16;96193.19;;;1.66;100.00
68889;BME280;55930;47.412;8.790;2024-02-21T03:20:37;96189.72;;;1.55;100.00
68889;BME280;55930;47.412;8.790;2024-02-21T03:23:57;96172.88;;;1.52;100.00
68889;BME280;55930;47.412;8.790;2024-02-21T03:27:17;96162.75;;;1.47;100.00
68889;BME280;55930;47.412;8.790;2024-02-21T03:30:39;96155.34;;;1.57;100.00
68889;BME280;55930;47.412;8.790;2024-02-21T03:33:59;96156.88;;;1.58;100.00
68889;BME280;55930;47.412;8.790;2024-02-21T03:37:19;96157.69;;;1.69;100.00
68889;BME280;55930;47.412;8.790;2024-02-21T03:40:40;96158.53;;;1.80;100.00
68889;BME280;55930;47.412;8.790;2024-02-21T03:44:00;96152.19;;;1.81;100.00
68889;BME280;55930;47.412;8.790;2024-02-21T03:47:21;96153.00;;;1.88;100.00
68889;BME280;55930;47.412;8.790;2024-02-21T03:50:44;96130.97;;;1.89;100.00
68889;BME280;55930;47.412;8.790;2024-02-21T03:54:04;96127.25;;;1.90;100.00
68889;BME280;55930;47.412;8.790;2024-02-21T03:57:25;96123.59;;;2.09;100.00
68889;BME280;55930;47.412;8.790;2024-02-21T04:00:46;96116.19;;;2.15;100.00
68889;BME280;55930;47.412;8.790;2024-02-21T04:04:06;96096.03;;;2.22;100.00
68889;BME280;55930;47.412;8.790;2024-02-21T04:07:26;96099.72;;;2.18;100.00
68889;BME280;55930;47.412;8.790;2024-02-21T04:10:47;96097.94;;;2.29;100.00
68889;BME280;55930;47.412;8.790;2024-02-21T04:14:07;96096.44;;;2.28;100.00
68889;BME280;55930;47.412;8.790;2024-02-21T04:17:28;96077.56;;;2.01;100.00
68889;BME280;55930;47.412;8.790;2024-02-21T04:20:50;96073.44;;;1.97;100.00
68889;BME280;55930;47.412;8.790;2024-02-21T04:24:10;96074.88;;;1.87;100.00
68889;BME280;55930;47.412;8.790;2024-02-21T04:27:31;96070.75;;;1.86;100.00
68889;BME280;55930;47.412;8.790;2024-02-21T04:30:51;96075.66;;;1.91;100.00
68889;BME280;55930;47.412;8.790;2024-02-21T04:34:11;96058.06;;;1.88;100.00
68889;BME280;55930;47.412;8.790;2024-02-21T04:37:32;96061.00;;;1.79;100.00
68889;BME280;55930;47.412;8.790;2024-02-21T04:40:52;96075.63;;;1.87;100.00
68889;BME280;55930;47.412;8.790;2024-02-21T04:44:13;96067.41;;;1.89;100.00
68889;BME280;55930;47.412;8.790;2024-02-21T04:47:33;96073.00;;;1.87;100.00
68889;BME280;55930;47.412;8.790;2024-02-21T04:50:54;96079.69;;;1.81;100.00
68889;BME280;55930;47.412;8.790;2024-02-21T04:54:14;96077.47;;;1.83;100.00
68889;BME280;55930;47.412;8.790;2024-02-21T04:57:34;96080.78;;;1.77;100.00
68889;BME280;55930;47.412;8.790;2024-02-21T05:00:55;96074.13;;;1.86;100.00
68889;BME280;55930;47.412;8.790;2024-02-21T05:04:15;96068.09;;;1.75;100.00
68889;BME280;55930;47.412;8.790;2024-02-21T05:07:35;96065.38;;;1.65;100.00
68889;BME280;55930;47.412;8.790;2024-02-21T05:10:56;96046.09;;;1.36;100.00
68889;BME280;55930;47.412;8.790;2024-02-21T05:14:19;96035.53;;;1.18;100.00
68889;BME280;55930;47.412;8.790;2024-02-21T05:17:39;96018.94;;;1.00;100.00
68889;BME280;55930;47.412;8.790;2024-02-21T05:21:03;96018.69;;;1.15;100.00
68889;BME280;55930;47.412;8.790;2024-02-21T05:24:23;96016.84;;;1.16;100.00
68889;BME280;55930;47.412;8.790;2024-02-21T05:27:43;96029.94;;;1.20;100.00
68889;BME280;55930;47.412;8.790;2024-02-21T05:31:07;96029.25;;;1.26;100.00
68889;BME280;55930;47.412;8.790;2024-02-21T05:34:27;96030.38;;;1.29;100.00
68889;BME280;55930;47.412;8.790;2024-02-21T05:37:50;96020.72;;;1.36;100.00
68889;BME280;55930;47.412;8.790;2024-02-21T05:41:12;96011.00;;;1.33;100.00
68889;BME280;55930;47.412;8.790;2024-02-21T05:44:33;96011.25;;;1.18;100.00
68889;BME280;55930;47.412;8.790;2024-02-21T05:47:53;96012.78;;;1.22;100.00
68889;BME280;55930;47.412;8.790;2024-02-21T05:51:17;96031.50;;;1.28;100.00
68889;BME280;55930;47.412;8.790;2024-02-21T05:54:38;96033.38;;;1.31;100.00
68889;BME280;55930;47.412;8.790;2024-02-21T05:58:02;96032.63;;;1.27;100.00
68889;BME280;55930;47.412;8.790;2024-02-21T06:01:22;96026.19;;;1.17;100.00
68889;BME280;55930;47.412;8.790;2024-02-21T06:04:43;96014.63;;;1.18;100.00
68889;BME280;55930;47.412;8.790;2024-02-21T06:08:04;96013.50;;;1.19;100.00
68889;BME280;55930;47.412;8.790;2024-02-21T06:11:25;96005.69;;;1.19;100.00
68889;BME280;55930;47.412;8.790;2024-02-21T06:14:45;96004.94;;;1.22;100.00
68889;BME280;55930;47.412;8.790;2024-02-21T06:18:06;96005.03;;;1.33;100.00
68889;BME280;55930;47.412;8.790;2024-02-21T06:21:29;95996.03;;;1.27;100.00
68889;BME280;55930;47.412;8.790;2024-02-21T06:24:49;95990.84;;;1.34;100.00
68889;BME280;55930;47.412;8.790;2024-02-21T06:28:10;95992.03;;;1.43;100.00
68889;BME280;55930;47.412;8.790;2024-02-21T06:31:30;95999.94;;;1.54;100.00
68889;BME280;55930;47.412;8.790;2024-02-21T06:34:52;95995.16;;;1.67;100.00
68889;BME280;55930;47.412;8.790;2024-02-21T06:38:12;96001.97;;;1.82;100.00
68889;BME280;55930;47.412;8.790;2024-02-21T06:41:37;96000.53;;;1.95;100.00
68889;BME280;55930;47.412;8.790;2024-02-21T06:44:58;96010.94;;;1.84;100.00
68889;BME280;55930;47.412;8.790;2024-02-21T06:48:18;96016.91;;;1.81;100.00
68889;BME280;55930;47.412;8.790;2024-02-21T06:51:39;96013.19;;;1.86;100.00
68889;BME280;55930;47.412;8.790;2024-02-21T06:54:59;96007.56;;;1.84;100.00
68889;BME280;55930;47.412;8.790;2024-02-21T06:58:20;96009.91;;;2.00;100.00
68889;BME280;55930;47.412;8.790;2024-02-21T07:01:40;96009.28;;;2.27;100.00
68889;BME280;55930;47.412;8.790;2024-02-21T07:05:04;96017.59;;;2.47;100.00
68889;BME280;55930;47.412;8.790;2024-02-21T07:08:25;96015.00;;;2.65;100.00
68889;BME280;55930;47.412;8.790;2024-02-21T07:11:48;96042.06;;;3.19;100.00
68889;BME280;55930;47.412;8.790;2024-02-21T07:15:11;96034.56;;;3.56;100.00
68889;BME280;55930;47.412;8.790;2024-02-21T07:18:31;96029.25;;;4.06;100.00
68889;BME280;55930;47.412;8.790;2024-02-21T07:21:51;95989.81;;;6.77;100.00
68889;BME280;55930;47.412;8.790;2024-02-21T07:25:14;95847.91;;;7.94;100.00
68889;BME280;55930;47.412;8.790;2024-02-21T07:28:37;95751.09;;;8.81;100.00
68889;BME280;55930;47.412;8.790;2024-02-21T07:32:00;95627.72;;;11.63;100.00
68889;BME280;55930;47.412;8.790;2024-02-21T07:35:20;95529.34;;;11.54;100.00
68889;BME280;55930;47.412;8.790;2024-02-21T07:38:40;95444.69;;;13.81;78.90
68889;BME280;55930;47.412;8.790;2024-02-21T07:42:01;95383.59;;;14.91;67.97
68889;BME280;55930;47.412;8.790;2024-02-21T07:45:22;95377.25;;;13.65;68.55
68889;BME280;55930;47.412;8.790;2024-02-21T07:48:45;95383.00;;;12.12;70.20
68889;BME280;55930;47.412;8.790;2024-02-21T07:52:06;95446.00;;;9.09;88.23
68889;BME280;55930;47.412;8.790;2024-02-21T07:55:26;95475.28;;;7.97;100.00
68889;BME280;55930;47.412;8.790;2024-02-21T07:58:46;95490.84;;;8.50;100.00
68889;BME280;55930;47.412;8.790;2024-02-21T08:02:07;95473.13;;;8.21;100.00
68889;BME280;55930;47.412;8.790;2024-02-21T08:05:27;95453.34;;;9.27;100.00
68889;BME280;55930;47.412;8.790;2024-02-21T08:08:50;95423.41;;;9.74;100.00
68889;BME280;55930;47.412;8.790;2024-02-21T08:12:10;95393.84;;;9.53;96.42
68889;BME280;55930;47.412;8.790;2024-02-21T08:15:30;95371.28;;;9.92;87.88
68889;BME280;55930;47.412;8.790;2024-02-21T08:18:51;95352.91;;;10.87;84.17
68889;BME280;55930;47.412;8.790;2024-02-21T08:22:11;95322.66;;;11.85;77.63
68889;BME280;55930;47.412;8.790;2024-02-21T08:25:31;95314.59;;;11.16;75.72
68889;BME280;55930;47.412;8.790;2024-02-21T08:28:52;95290.94;;;11.63;71.50
68889;BME280;55930;47.412;8.790;2024-02-21T08:32:15;95296.44;;;12.02;71.54
68889;BME280;55930;47.412;8.790;2024-02-21T08:35:35;95305.16;;;11.24;72.93
68889;BME280;55930;47.412;8.790;2024-02-21T08:38:56;95312.03;;;9.77;75.89
68889;BME280;55930;47.412;8.790;2024-02-21T08:42:16;95313.44;;;11.17;78.51
68889;BME280;55930;47.412;8.790;2024-02-21T08:45:37;95270.19;;;12.51;71.45
68889;BME280;55930;47.412;8.790;2024-02-21T08:48:57;95253.03;;;13.73;64.71
68889;BME280;55930;47.412;8.790;2024-02-21T08:52:18;95227.94;;;14.50;59.05
68889;BME280;55930;47.412;8.790;2024-02-21T08:55:38;95219.91;;;14.70;57.02
68889;BME280;55930;47.412;8.790;2024-02-21T08:58:58;95215.94;;;14.25;56.05
68889;BME280;55930;47.412;8.790;2024-02-21T09:02:19;95206.44;;;14.04;57.72
68889;BME280;55930;47.412;8.790;2024-02-21T09:05:39;95212.00;;;12.83;59.04
68889;BME280;55930;47.412;8.790;2024-02-21T09:09:00;95228.63;;;12.30;61.71
68889;BME280;55930;47.412;8.790;2024-02-21T09:12:20;95232.94;;;12.27;63.49
68889;BME280;55930;47.412;8.790;2024-02-21T09:15:40;95224.50;;;12.53;64.72
68889;BME280;55930;47.412;8.790;2024-02-21T09:19:01;95222.84;;;10.96;64.69
68889;BME280;55930;47.412;8.790;2024-02-21T09:22:21;95199.19;;;14.25;59.09
68889;BME280;55930;47.412;8.790;2024-02-21T09:25:42;95186.31;;;14.23;58.32
68889;BME280;55930;47.412;8.790;2024-02-21T09:29:02;95187.75;;;13.69;58.43
68889;BME280;55930;47.412;8.790;2024-02-21T09:32:24;95179.66;;;13.78;59.28
68889;BME280;55930;47.412;8.790;2024-02-21T09:35:44;95182.44;;;13.69;58.55
68889;BME280;55930;47.412;8.790;2024-02-21T09:39:04;95172.44;;;13.49;58.57
68889;BME280;55930;47.412;8.790;2024-02-21T09:42:39;95151.50;;;14.78;53.86
68889;BME280;55930;47.412;8.790;2024-02-21T09:46:00;95147.22;;;16.23;52.36
68889;BME280;55930;47.412;8.790;2024-02-21T09:49:30;95137.38;;;15.55;49.86
68889;BME280;55930;47.412;8.790;2024-02-21T09:52:54;95118.97;;;17.32;48.08
68889;BME280;55930;47.412;8.790;2024-02-21T09:56:15;95099.44;;;16.92;45.70
68889;BME280;55930;47.412;8.790;2024-02-21T09:59:35;95093.34;;;17.03;46.97
68889;BME280;55930;47.412;8.790;2024-02-21T10:02:56;95116.94;;;16.71;49.48
68889;BME280;55930;47.412;8.790;2024-02-21T10:06:16;95115.47;;;14.42;50.06
68889;BME280;55930;47.412;8.790;2024-02-21T10:09:36;95126.94;;;14.28;52.30
68889;BME280;55930;47.412;8.790;2024-02-21T10:12:57;95089.19;;;17.35;47.42
68889;BME280;55930;47.412;8.790;2024-02-21T10:16:18;95065.53;;;19.07;42.45
68889;BME280;55930;47.412;8.790;2024-02-21T10:19:38;95060.75;;;20.53;39.99
68889;BME280;55930;47.412;8.790;2024-02-21T10:23:04;95047.56;;;21.00;39.33
68889;BME280;55930;47.412;8.790;2024-02-21T10:26:28;95038.78;;;21.13;39.12
68889;BME280;55930;47.412;8.790;2024-02-21T10:29:49;95060.41;;;18.68;40.45
68889;BME280;55930;47.412;8.790;2024-02-21T10:33:15;95081.09;;;14.30;49.34
68889;BME280;55930;47.412;8.790;2024-02-21T10:36:36;95089.75;;;14.97;50.50
68889;BME280;55930;47.412;8.790;2024-02-21T10:39:56;95083.09;;;15.97;49.87
68889;BME280;55930;47.412;8.790;2024-02-21T10:43:17;95090.13;;;15.47;51.63
68889;BME280;55930;47.412;8.790;2024-02-21T10:46:39;95065.47;;;16.44;48.20
68889;BME280;55930;47.412;8.790;2024-02-21T10:50:04;95054.59;;;16.70;47.42
68889;BME280;55930;47.412;8.790;2024-02-21T10:57:02;95042.91;;;18.09;44.06
68889;BME280;55930;47.412;8.790;2024-02-21T11:00:25;95028.88;;;18.68;43.72
68889;BME280;55930;47.412;8.790;2024-02-21T11:03:53;95022.00;;;17.91;43.17
68889;BME280;55930;47.412;8.790;2024-02-21T11:07:15;95035.13;;;18.00;45.28
68889;BME280;55930;47.412;8.790;2024-02-21T11:10:36;95017.44;;;18.98;42.82
68889;BME280;55930;47.412;8.790;2024-02-21T11:14:18;95019.13;;;15.94;47.87
68889;BME280;55930;47.412;8.790;2024-02-21T11:17:37;95008.06;;;15.64;49.47
68889;BME280;55930;47.412;8.790;2024-02-21T11:21:03;95006.53;;;16.22;47.89
68889;BME280;55930;47.412;8.790;2024-02-21T11:24:31;94995.84;;;16.39;47.97
68889;BME280;55930;47.412;8.790;2024-02-21T11:28:02;94980.19;;;18.78;47.60
68889;BME280;55930;47.412;8.790;2024-02-21T11:31:22;94965.16;;;18.63;43.20
68889;BME280;55930;47.412;8.790;2024-02-21T11:38:17;94952.13;;;20.08;40.73
68889;BME280;55930;47.412;8.790;2024-02-21T11:41:38;94942.31;;;21.93;38.91
68889;BME280;55930;47.412;8.790;2024-02-21T11:45:03;94930.41;;;20.38;39.41
68889;BME280;55930;47.412;8.790;2024-02-21T11:48:24;94927.22;;;20.52;38.51
68889;BME280;55930;47.412;8.790;2024-02-21T11:51:47;94921.81;;;20.97;38.95
68889;BME280;55930;47.412;8.790;2024-02-21T11:55:11;94905.66;;;21.84;37.68
68889;BME280;55930;47.412;8.790;2024-02-21T11:58:31;94892.50;;;20.62;37.55
68889;BME280;55930;47.412;8.790;2024-02-21T12:01:52;94899.97;;;21.74;37.01
68889;BME280;55930;47.412;8.790;2024-02-21T12:05:13;94885.38;;;22.25;35.38
68889;BME280;55930;47.412;8.790;2024-02-21T12:08:43;94879.53;;;20.47;37.17
68889;BME280;55930;47.412;8.790;2024-02-21T12:12:05;94877.97;;;20.39;39.30
68889;BME280;55930;47.412;8.790;2024-02-21T12:15:25;94878.00;;;20.78;37.22
68889;BME280;55930;47.412;8.790;2024-02-21T12:18:46;94875.31;;;19.26;39.27
68889;BME280;55930;47.412;8.790;2024-02-21T12:22:06;94864.97;;;20.82;39.51
68889;BME280;55930;47.412;8.790;2024-02-21T12:25:28;94866.47;;;18.88;40.23
68889;BME280;55930;47.412;8.790;2024-02-21T12:28:49;94854.00;;;18.66;41.52
68889;BME280;55930;47.412;8.790;2024-02-21T12:32:10;94862.13;;;17.95;43.45
68889;BME280;55930;47.412;8.790;2024-02-21T12:35:30;94854.38;;;16.82;44.15
68889;BME280;55930;47.412;8.790;2024-02-21T12:38:53;94856.72;;;15.24;47.64
68889;BME280;55930;47.412;8.790;2024-02-21T12:42:13;94848.19;;;17.04;45.86
68889;BME280;55930;47.412;8.790;2024-02-21T12:45:33;94843.59;;;16.93;46.53
68889;BME280;55930;47.412;8.790;2024-02-21T12:48:54;94839.16;;;17.59;45.87
68889;BME280;55930;47.412;8.790;2024-02-21T12:52:15;94838.56;;;16.56;46.95
68889;BME280;55930;47.412;8.790;2024-02-21T12:55:36;94823.13;;;16.96;46.00
68889;BME280;55930;47.412;8.790;2024-02-21T12:58:58;94813.81;;;16.05;47.46
68889;BME280;55930;47.412;8.790;2024-02-21T13:02:18;94812.25;;;16.60;48.47
68889;BME280;55930;47.412;8.790;2024-02-21T13:05:40;94803.13;;;15.72;47.54
68889;BME280;55930;47.412;8.790;2024-02-21T13:09:00;94802.09;;;16.31;47.18
68889;BME280;55930;47.412;8.790;2024-02-21T13:12:23;94790.88;;;16.38;48.17
68889;BME280;55930;47.412;8.790;2024-02-21T13:15:46;94782.72;;;14.87;49.30
68889;BME280;55930;47.412;8.790;2024-02-21T13:19:08;94776.59;;;15.80;49.83
68889;BME280;55930;47.412;8.790;2024-02-21T13:22:29;94769.88;;;16.70;48.33
68889;BME280;55930;47.412;8.790;2024-02-21T13:25:49;94752.34;;;16.69;47.13
68889;BME280;55930;47.412;8.790;2024-02-21T13:29:10;94742.63;;;16.66;47.01
68889;BME280;55930;47.412;8.790;2024-02-21T13:32:32;94729.06;;;16.30;46.16
68889;BME280;55930;47.412;8.790;2024-02-21T13:35:55;94727.44;;;16.85;46.74
68889;BME280;55930;47.412;8.790;2024-02-21T13:39:15;94717.97;;;15.82;47.58
68889;BME280;55930;47.412;8.790;2024-02-21T13:42:38;94713.66;;;15.56;48.50
68889;BME280;55930;47.412;8.790;2024-02-21T13:46:02;94707.53;;;16.69;45.61
68889;BME280;55930;47.412;8.790;2024-02-21T13:49:25;94696.03;;;16.80;46.13
68889;BME280;55930;47.412;8.790;2024-02-21T13:52:45;94683.50;;;16.47;46.03
68889;BME280;55930;47.412;8.790;2024-02-21T13:56:06;94681.38;;;16.34;47.32
68889;BME280;55930;47.412;8.790;2024-02-21T13:59:31;94677.25;;;16.22;47.19
68889;BME280;55930;47.412;8.790;2024-02-21T14:02:53;94676.41;;;15.14;47.82
68889;BME280;55930;47.412;8.790;2024-02-21T14:06:14;94676.84;;;14.73;49.67
68889;BME280;55930;47.412;8.790;2024-02-21T14:09:35;94674.19;;;14.20;49.39
68889;BME280;55930;47.412;8.790;2024-02-21T14:12:55;94667.94;;;14.34;50.39
68889;BME280;55930;47.412;8.790;2024-02-21T14:16:17;94664.78;;;13.82;51.82
68889;BME280;55930;47.412;8.790;2024-02-21T14:19:37;94669.22;;;13.53;53.43
68889;BME280;55930;47.412;8.790;2024-02-21T14:22:57;94655.13;;;13.47;53.29
68889;BME280;55930;47.412;8.790;2024-02-21T14:26:18;94658.13;;;13.03;55.17
68889;BME280;55930;47.412;8.790;2024-02-21T14:29:38;94658.41;;;12.79;58.34
68889;BME280;55930;47.412;8.790;2024-02-21T14:32:59;94674.28;;;12.68;61.83
68889;BME280;55930;47.412;8.790;2024-02-21T14:36:19;94672.91;;;12.32;63.04
68889;BME280;55930;47.412;8.790;2024-02-21T14:39:39;94657.63;;;12.07;62.62
68889;BME280;55930;47.412;8.790;2024-02-21T14:43:00;94663.69;;;12.27;63.89
68889;BME280;55930;47.412;8.790;2024-02-21T14:46:20;94656.28;;;12.17;64.92
68889;BME280;55930;47.412;8.790;2024-02-21T14:49:43;94665.00;;;12.17;67.13
68889;BME280;55930;47.412;8.790;2024-02-21T14:53:03;94653.69;;;12.22;63.90
68889;BME280;55930;47.412;8.790;2024-02-21T14:56:24;94652.09;;;11.90;65.19
68889;BME280;55930;47.412;8.790;2024-02-21T14:59:44;94664.59;;;11.69;68.24
68889;BME280;55930;47.412;8.790;2024-02-21T15:03:04;94653.38;;;11.95;66.96
68889;BME280;55930;47.412;8.790;2024-02-21T15:06:25;94653.09;;;11.93;68.10
68889;BME280;55930;47.412;8.790;2024-02-21T15:09:45;94651.31;;;12.04;69.13
68889;BME280;55930;47.412;8.790;2024-02-21T15:13:05;94647.84;;;11.78;69.74
68889;BME280;55930;47.412;8.790;2024-02-21T15:16:28;94645.78;;;11.87;69.99
68889;BME280;55930;47.412;8.790;2024-02-21T15:19:49;94647.84;;;11.63;69.95
68889;BME280;55930;47.412;8.790;2024-02-21T15:23:10;94648.13;;;11.80;72.60
68889;BME280;55930;47.412;8.790;2024-02-21T15:26:30;94639.13;;;11.77;70.45
68889;BME280;55930;47.412;8.790;2024-02-21T15:29:51;94644.56;;;11.54;73.28
68889;BME280;55930;47.412;8.790;2024-02-21T15:33:12;94635.31;;;11.64;75.56
68889;BME280;55930;47.412;8.790;2024-02-21T15:36:35;94642.94;;;11.56;76.72
68889;BME280;55930;47.412;8.790;2024-02-21T15:39:55;94647.78;;;11.43;79.63
68889;BME280;55930;47.412;8.790;2024-02-21T15:43:18;94640.66;;;11.34;80.42
68889;BME280;55930;47.412;8.790;2024-02-21T15:46:38;94633.31;;;11.09;79.62
68889;BME280;55930;47.412;8.790;2024-02-21T15:49:58;94636.59;;;11.04;80.16
68889;BME280;55930;47.412;8.790;2024-02-21T15:53:21;94639.34;;;10.95;87.52
68889;BME280;55930;47.412;8.790;2024-02-21T15:56:43;94625.34;;;10.65;81.49
68889;BME280;55930;47.412;8.790;2024-02-21T16:00:06;94629.38;;;10.60;85.74
68889;BME280;55930;47.412;8.790;2024-02-21T16:03:26;94624.38;;;10.39;86.63
68889;BME280;55930;47.412;8.790;2024-02-21T16:06:46;94625.66;;;10.28;91.45
68889;BME280;55930;47.412;8.790;2024-02-21T16:10:11;94634.91;;;10.09;99.46
68889;BME280;55930;47.412;8.790;2024-02-21T16:13:31;94615.91;;;10.11;94.69
68889;BME280;55930;47.412;8.790;2024-02-21T16:16:54;94623.63;;;9.76;98.94
68889;BME280;55930;47.412;8.790;2024-02-21T16:20:17;94627.69;;;9.86;100.00
68889;BME280;55930;47.412;8.790;2024-02-21T16:23:37;94619.69;;;9.47;100.00
68889;BME280;55930;47.412;8.790;2024-02-21T16:26:58;94652.31;;;9.11;100.00
68889;BME280;55930;47.412;8.790;2024-02-21T16:30:18;94633.31;;;9.22;100.00
68889;BME280;55930;47.412;8.790;2024-02-21T16:33:41;94636.72;;;9.13;100.00
68889;BME280;55930;47.412;8.790;2024-02-21T16:37:04;94660.34;;;8.75;100.00
68889;BME280;55930;47.412;8.790;2024-02-21T16:40:24;94651.88;;;9.04;100.00
68889;BME280;55930;47.412;8.790;2024-02-21T16:43:45;94636.78;;;8.95;100.00
68889;BME280;55930;47.412;8.790;2024-02-21T16:47:05;94628.09;;;8.95;100.00
68889;BME280;55930;47.412;8.790;2024-02-21T16:50:26;94645.97;;;8.67;100.00
68889;BME280;55930;47.412;8.790;2024-02-21T16:53:46;94625.56;;;8.49;100.00
68889;BME280;55930;47.412;8.790;2024-02-21T16:57:07;94640.69;;;8.58;100.00
68889;BME280;55930;47.412;8.790;2024-02-21T17:00:27;94647.56;;;8.55;100.00
68889;BME280;55930;47.412;8.790;2024-02-21T17:03:48;94624.94;;;8.72;100.00
68889;BME280;55930;47.412;8.790;2024-02-21T17:07:08;94608.75;;;8.70;100.00
68889;BME280;55930;47.412;8.790;2024-02-21T17:10:28;94609.34;;;8.74;100.00
68889;BME280;55930;47.412;8.790;2024-02-21T17:13:49;94609.66;;;8.67;100.00
68889;BME280;55930;47.412;8.790;2024-02-21T17:17:10;94593.31;;;8.78;100.00
68889;BME280;55930;47.412;8.790;2024-02-21T17:20:30;94598.78;;;8.65;100.00
68889;BME280;55930;47.412;8.790;2024-02-21T17:23:51;94582.38;;;8.61;100.00
68889;BME280;55930;47.412;8.790;2024-02-21T17:27:11;94584.84;;;8.65;100.00
68889;BME280;55930;47.412;8.790;2024-02-21T17:30:32;94578.53;;;8.62;100.00
68889;BME280;55930;47.412;8.790;2024-02-21T17:33:55;94568.56;;;8.57;100.00
68889;BME280;55930;47.412;8.790;2024-02-21T17:37:16;94576.78;;;8.50;100.00
68889;BME280;55930;47.412;8.790;2024-02-21T17:40:36;94573.56;;;8.46;100.00
68889;BME280;55930;47.412;8.790;2024-02-21T17:43:57;94564.31;;;8.51;100.00
68889;BME280;55930;47.412;8.790;2024-02-21T17:47:17;94574.19;;;8.32;100.00
68889;BME280;55930;47.412;8.790;2024-02-21T17:50:39;94564.47;;;8.29;100.00
68889;BME280;55930;47.412;8.790;2024-02-21T17:53:59;94572.41;;;8.29;100.00